sensor_id;sensor_type;location;lat;lon;timestamp;temperature;humidity
63537;DHT22;49686;51.880;5.632;2023-11-21T00:02:27;7.00;99.90
63537;DHT22;49686;51.880;5.632;2023-11-21T00:04:54;6.90;99.90
63537;DHT22;49686;51.880;5.632;2023-11-21T00:07:22;6.90;99.90
63537;DHT22;49686;51.880;5.632;2023-11-21T00:09:49;6.90;99.90
63537;DHT22;49686;51.880;5.632;2023-11-21T00:12:16;6.80;99.90
63537;DHT22;49686;51.880;5.632;2023-11-21T00:14:42;6.90;99.90
63537;DHT22;49686;51.880;5.632;2023-11-21T00:17:09;6.90;99.90
63537;DHT22;49686;51.880;5.632;2023-11-21T00:19:37;6.90;99.90
63537;DHT22;49686;51.880;5.632;2023-11-21T00:22:05;6.80;99.90
63537;DHT22;49686;51.880;5.632;2023-11-21T00:24:31;6.80;99.90
63537;DHT22;49686;51.880;5.632;2023-11-21T00:26:58;6.80;99.90
63537;DHT22;49686;51.880;5.632;2023-11-21T00:29:25;6.80;99.90
63537;DHT22;49686;51.880;5.632;2023-11-21T00:31:52;6.70;99.90
63537;DHT22;49686;51.880;5.632;2023-11-21T00:34:19;6.70;99.90
63537;DHT22;49686;51.880;5.632;2023-11-21T00:36:47;6.70;99.90
63537;DHT22;49686;51.880;5.632;2023-11-21T00:39:14;6.70;99.90
63537;DHT22;49686;51.880;5.632;2023-11-21T00:41:41;6.70;99.90
63537;DHT22;49686;51.880;5.632;2023-11-21T00:44:08;6.70;99.90
63537;DHT22;49686;51.880;5.632;2023-11-21T00:46:36;6.70;99.90
63537;DHT22;49686;51.880;5.632;2023-11-21T00:49:03;6.70;99.90
63537;DHT22;49686;51.880;5.632;2023-11-21T00:51:30;6.60;99.90
63537;DHT22;49686;51.880;5.632;2023-11-21T00:53:58;6.60;99.90
63537;DHT22;49686;51.880;5.632;2023-11-21T00:56:25;6.60;99.90
63537;DHT22;49686;51.880;5.632;2023-11-21T00:58:53;6.60;99.90
63537;DHT22;49686;51.880;5.632;2023-11-21T01:01:21;6.70;99.90
63537;DHT22;49686;51.880;5.632;2023-11-21T01:03:48;6.60;99.90
63537;DHT22;49686;51.880;5.632;2023-11-21T01:06:15;6.60;99.90
63537;DHT22;49686;51.880;5.632;2023-11-21T01:08:43;6.50;99.90
63537;DHT22;49686;51.880;5.632;2023-11-21T01:11:11;6.50;99.90
63537;DHT22;49686;51.880;5.632;2023-11-21T01:13:38;6.50;99.90
63537;DHT22;49686;51.880;5.632;2023-11-21T01:16:06;6.50;99.90
63537;DHT22;49686;51.880;5.632;2023-11-21T01:18:42;6.50;99.90
63537;DHT22;49686;51.880;5.632;2023-11-21T01:21:09;6.50;99.90
63537;DHT22;49686;51.880;5.632;2023-11-21T01:23:38;6.50;99.90
63537;DHT22;49686;51.880;5.632;2023-11-21T01:26:05;6.50;99.90
63537;DHT22;49686;51.880;5.632;2023-11-21T01:28:33;6.40;99.90
63537;DHT22;49686;51.880;5.632;2023-11-21T01:31:00;6.40;99.90
63537;DHT22;49686;51.880;5.632;2023-11-21T01:33:27;6.50;99.90
63537;DHT22;49686;51.880;5.632;2023-11-21T01:35:54;6.40;99.90
63537;DHT22;49686;51.880;5.632;2023-11-21T01:38:21;6.50;99.90
63537;DHT22;49686;51.880;5.632;2023-11-21T01:40:48;6.50;99.90
63537;DHT22;49686;51.880;5.632;2023-11-21T01:43:15;6.50;99.90
63537;DHT22;49686;51.880;5.632;2023-11-21T01:45:43;6.50;99.90
63537;DHT22;49686;51.880;5.632;2023-11-21T01:48:12;6.50;99.90
63537;DHT22;49686;51.880;5.632;2023-11-21T01:50:40;6.50;99.90
63537;DHT22;49686;51.880;5.632;2023-11-21T01:53:06;6.60;99.90
63537;DHT22;49686;51.880;5.632;2023-11-21T01:55:33;6.60;99.90
63537;DHT22;49686;51.880;5.632;2023-11-21T01:58:01;6.70;99.90
63537;DHT22;49686;51.880;5.632;2023-11-21T02:00:27;6.70;99.90
63537;DHT22;49686;51.880;5.632;2023-11-21T02:02:57;6.70;99.90
63537;DHT22;49686;51.880;5.632;2023-11-21T02:05:24;6.70;99.90
63537;DHT22;49686;51.880;5.632;2023-11-21T02:07:51;6.70;99.90
63537;DHT22;49686;51.880;5.632;2023-11-21T02:10:18;6.80;99.90
63537;DHT22;49686;51.880;5.632;2023-11-21T02:12:45;6.80;99.90
63537;DHT22;49686;51.880;5.632;2023-11-21T02:15:13;6.90;99.90
63537;DHT22;49686;51.880;5.632;2023-11-21T02:17:41;6.90;99.90
63537;DHT22;49686;51.880;5.632;2023-11-21T02:20:10;6.90;99.90
63537;DHT22;49686;51.880;5.632;2023-11-21T02:22:39;6.90;99.90
63537;DHT22;49686;51.880;5.632;2023-11-21T02:25:08;6.80;99.90
63537;DHT22;49686;51.880;5.632;2023-11-21T02:27:35;6.80;99.90
63537;DHT22;49686;51.880;5.632;2023-11-21T02:30:02;6.80;99.90
63537;DHT22;49686;51.880;5.632;2023-11-21T02:32:29;6.80;99.90
63537;DHT22;49686;51.880;5.632;2023-11-21T02:34:56;6.80;99.90
63537;DHT22;49686;51.880;5.632;2023-11-21T02:37:23;6.70;99.90
63537;DHT22;49686;51.880;5.632;2023-11-21T02:39:50;6.80;99.90
63537;DHT22;49686;51.880;5.632;2023-11-21T02:42:18;6.70;99.90
63537;DHT22;49686;51.880;5.632;2023-11-21T02:44:45;6.70;99.90
63537;DHT22;49686;51.880;5.632;2023-11-21T02:47:11;6.70;99.90
63537;DHT22;49686;51.880;5.632;2023-11-21T02:49:38;6.60;99.90
63537;DHT22;49686;51.880;5.632;2023-11-21T02:52:05;6.60;99.90
63537;DHT22;49686;51.880;5.632;2023-11-21T02:54:32;6.60;99.90
63537;DHT22;49686;51.880;5.632;2023-11-21T02:56:59;6.50;99.90
63537;DHT22;49686;51.880;5.632;2023-11-21T02:59:27;6.50;99.90
63537;DHT22;49686;51.880;5.632;2023-11-21T03:01:54;6.50;99.90
63537;DHT22;49686;51.880;5.632;2023-11-21T03:04:21;6.50;99.90
63537;DHT22;49686;51.880;5.632;2023-11-21T03:06:49;6.60;99.90
63537;DHT22;49686;51.880;5.632;2023-11-21T03:09:15;6.50;99.90
63537;DHT22;49686;51.880;5.632;2023-11-21T03:11:45;6.60;99.90
63537;DHT22;49686;51.880;5.632;2023-11-21T03:14:12;6.50;99.90
63537;DHT22;49686;51.880;5.632;2023-11-21T03:16:40;6.60;99.90
63537;DHT22;49686;51.880;5.632;2023-11-21T03:19:07;6.60;99.90
63537;DHT22;49686;51.880;5.632;2023-11-21T03:21:33;6.60;99.90
63537;DHT22;49686;51.880;5.632;2023-11-21T03:24:00;6.60;99.90
63537;DHT22;49686;51.880;5.632;2023-11-21T03:26:27;6.60;99.90
63537;DHT22;49686;51.880;5.632;2023-11-21T03:28:54;6.60;99.90
63537;DHT22;49686;51.880;5.632;2023-11-21T03:31:21;6.60;99.90
63537;DHT22;49686;51.880;5.632;2023-11-21T03:33:50;6.60;99.90
63537;DHT22;49686;51.880;5.632;2023-11-21T03:36:17;6.70;99.90
63537;DHT22;49686;51.880;5.632;2023-11-21T03:38:44;6.70;99.90
63537;DHT22;49686;51.880;5.632;2023-11-21T03:41:11;6.70;99.90
63537;DHT22;49686;51.880;5.632;2023-11-21T03:43:37;6.70;99.90
63537;DHT22;49686;51.880;5.632;2023-11-21T03:46:05;6.70;99.90
63537;DHT22;49686;51.880;5.632;2023-11-21T03:48:32;6.70;99.90
63537;DHT22;49686;51.880;5.632;2023-11-21T03:51:00;6.70;99.90
63537;DHT22;49686;51.880;5.632;2023-11-21T03:53:26;6.70;99.90
63537;DHT22;49686;51.880;5.632;2023-11-21T03:55:53;6.70;99.90
63537;DHT22;49686;51.880;5.632;2023-11-21T03:58:20;6.70;99.90
63537;DHT22;49686;51.880;5.632;2023-11-21T04:00:47;6.70;99.90
63537;DHT22;49686;51.880;5.632;2023-11-21T04:03:14;6.80;99.90
63537;DHT22;49686;51.880;5.632;2023-11-21T04:05:41;6.70;99.90
63537;DHT22;49686;51.880;5.632;2023-11-21T04:08:10;6.80;99.90
63537;DHT22;49686;51.880;5.632;2023-11-21T04:10:36;6.80;99.90
63537;DHT22;49686;51.880;5.632;2023-11-21T04:13:03;6.80;99.90
63537;DHT22;49686;51.880;5.632;2023-11-21T04:15:30;6.90;99.90
63537;DHT22;49686;51.880;5.632;2023-11-21T04:17:57;6.90;99.90
63537;DHT22;49686;51.880;5.632;2023-11-21T04:20:26;6.90;99.90
63537;DHT22;49686;51.880;5.632;2023-11-21T04:22:53;6.90;99.90
63537;DHT22;49686;51.880;5.632;2023-11-21T04:25:21;6.90;99.90
63537;DHT22;49686;51.880;5.632;2023-11-21T04:27:48;7.00;99.90
63537;DHT22;49686;51.880;5.632;2023-11-21T04:30:15;7.00;99.90
63537;DHT22;49686;51.880;5.632;2023-11-21T04:32:42;7.00;99.90
63537;DHT22;49686;51.880;5.632;2023-11-21T04:35:09;7.00;99.90
63537;DHT22;49686;51.880;5.632;2023-11-21T04:37:36;7.00;99.90
63537;DHT22;49686;51.880;5.632;2023-11-21T04:40:04;7.10;99.90
63537;DHT22;49686;51.880;5.632;2023-11-21T04:42:33;7.10;99.90
63537;DHT22;49686;51.880;5.632;2023-11-21T04:45:00;7.10;99.90
63537;DHT22;49686;51.880;5.632;2023-11-21T04:47:27;7.10;99.90
63537;DHT22;49686;51.880;5.632;2023-11-21T04:49:55;7.10;99.90
63537;DHT22;49686;51.880;5.632;2023-11-21T04:52:22;7.10;99.90
63537;DHT22;49686;51.880;5.632;2023-11-21T04:54:49;7.10;99.90
63537;DHT22;49686;51.880;5.632;2023-11-21T04:57:16;7.20;99.90
63537;DHT22;49686;51.880;5.632;2023-11-21T04:59:44;7.20;99.90
63537;DHT22;49686;51.880;5.632;2023-11-21T05:02:11;7.10;99.90
63537;DHT22;49686;51.880;5.632;2023-11-21T05:04:56;7.20;99.90
63537;DHT22;49686;51.880;5.632;2023-11-21T05:07:23;7.20;99.90
63537;DHT22;49686;51.880;5.632;2023-11-21T05:09:50;7.20;99.90
63537;DHT22;49686;51.880;5.632;2023-11-21T05:12:17;7.20;99.90
63537;DHT22;49686;51.880;5.632;2023-11-21T05:14:45;7.20;99.90
63537;DHT22;49686;51.880;5.632;2023-11-21T05:17:15;7.20;99.90
63537;DHT22;49686;51.880;5.632;2023-11-21T05:19:42;7.30;99.90
63537;DHT22;49686;51.880;5.632;2023-11-21T05:22:09;7.30;99.90
63537;DHT22;49686;51.880;5.632;2023-11-21T05:24:37;7.30;99.90
63537;DHT22;49686;51.880;5.632;2023-11-21T05:27:04;7.30;99.90
63537;DHT22;49686;51.880;5.632;2023-11-21T05:29:31;7.30;99.90
63537;DHT22;49686;51.880;5.632;2023-11-21T05:31:59;7.30;99.90
63537;DHT22;49686;51.880;5.632;2023-11-21T05:34:26;7.30;99.90
63537;DHT22;49686;51.880;5.632;2023-11-21T05:36:53;7.30;99.90
63537;DHT22;49686;51.880;5.632;2023-11-21T05:39:20;7.30;99.90
63537;DHT22;49686;51.880;5.632;2023-11-21T05:41:47;7.30;99.90
63537;DHT22;49686;51.880;5.632;2023-11-21T05:44:16;7.30;99.90
63537;DHT22;49686;51.880;5.632;2023-11-21T05:46:42;7.40;99.90
63537;DHT22;49686;51.880;5.632;2023-11-21T05:49:11;7.40;99.90
63537;DHT22;49686;51.880;5.632;2023-11-21T05:51:37;7.40;99.90
63537;DHT22;49686;51.880;5.632;2023-11-21T05:54:04;7.40;99.90
63537;DHT22;49686;51.880;5.632;2023-11-21T05:56:31;7.40;99.90
63537;DHT22;49686;51.880;5.632;2023-11-21T05:58:58;7.50;99.90
63537;DHT22;49686;51.880;5.632;2023-11-21T06:01:25;7.40;99.90
63537;DHT22;49686;51.880;5.632;2023-11-21T06:03:52;7.50;99.90
63537;DHT22;49686;51.880;5.632;2023-11-21T06:06:20;7.50;99.90
63537;DHT22;49686;51.880;5.632;2023-11-21T06:08:47;7.50;99.90
63537;DHT22;49686;51.880;5.632;2023-11-21T06:11:14;7.50;99.90
63537;DHT22;49686;51.880;5.632;2023-11-21T06:13:41;7.50;99.90
63537;DHT22;49686;51.880;5.632;2023-11-21T06:16:08;7.50;99.90
63537;DHT22;49686;51.880;5.632;2023-11-21T06:18:35;7.50;99.90
63537;DHT22;49686;51.880;5.632;2023-11-21T06:21:02;7.50;99.90
63537;DHT22;49686;51.880;5.632;2023-11-21T06:23:30;7.60;99.90
63537;DHT22;49686;51.880;5.632;2023-11-21T06:25:57;7.60;99.90
63537;DHT22;49686;51.880;5.632;2023-11-21T06:28:24;7.60;99.90
63537;DHT22;49686;51.880;5.632;2023-11-21T06:30:51;7.60;99.90
63537;DHT22;49686;51.880;5.632;2023-11-21T06:33:18;7.60;99.90
63537;DHT22;49686;51.880;5.632;2023-11-21T06:35:45;7.70;99.90
63537;DHT22;49686;51.880;5.632;2023-11-21T06:38:11;7.70;99.90
63537;DHT22;49686;51.880;5.632;2023-11-21T06:40:40;7.60;99.90
63537;DHT22;49686;51.880;5.632;2023-11-21T06:43:06;7.70;99.90
63537;DHT22;49686;51.880;5.632;2023-11-21T06:45:33;7.60;99.90
63537;DHT22;49686;51.880;5.632;2023-11-21T06:48:00;7.60;99.90
63537;DHT22;49686;51.880;5.632;2023-11-21T06:50:27;7.70;99.90
63537;DHT22;49686;51.880;5.632;2023-11-21T06:52:54;7.70;99.90
63537;DHT22;49686;51.880;5.632;2023-11-21T06:55:21;7.60;99.90
63537;DHT22;49686;51.880;5.632;2023-11-21T06:57:49;7.70;99.90
63537;DHT22;49686;51.880;5.632;2023-11-21T07:00:17;7.70;99.90
63537;DHT22;49686;51.880;5.632;2023-11-21T07:02:44;7.70;99.90
63537;DHT22;49686;51.880;5.632;2023-11-21T07:05:11;7.70;99.90
63537;DHT22;49686;51.880;5.632;2023-11-21T07:07:38;7.70;99.90
63537;DHT22;49686;51.880;5.632;2023-11-21T07:10:06;7.70;99.90
63537;DHT22;49686;51.880;5.632;2023-11-21T07:12:32;7.70;99.90
63537;DHT22;49686;51.880;5.632;2023-11-21T07:15:01;7.70;99.90
63537;DHT22;49686;51.880;5.632;2023-11-21T07:17:27;7.70;99.90
63537;DHT22;49686;51.880;5.632;2023-11-21T07:19:54;7.80;99.90
63537;DHT22;49686;51.880;5.632;2023-11-21T07:22:21;7.80;99.90
63537;DHT22;49686;51.880;5.632;2023-11-21T07:24:49;7.80;99.90
63537;DHT22;49686;51.880;5.632;2023-11-21T07:27:15;7.80;99.90
63537;DHT22;49686;51.880;5.632;2023-11-21T07:29:42;7.80;99.90
63537;DHT22;49686;51.880;5.632;2023-11-21T07:32:10;7.90;99.90
63537;DHT22;49686;51.880;5.632;2023-11-21T07:34:37;7.90;99.90
63537;DHT22;49686;51.880;5.632;2023-11-21T07:37:04;8.00;99.90
63537;DHT22;49686;51.880;5.632;2023-11-21T07:39:31;7.90;99.90
63537;DHT22;49686;51.880;5.632;2023-11-21T07:41:58;7.90;99.90
63537;DHT22;49686;51.880;5.632;2023-11-21T07:44:26;7.90;99.90
63537;DHT22;49686;51.880;5.632;2023-11-21T07:46:53;7.90;99.90
63537;DHT22;49686;51.880;5.632;2023-11-21T07:49:21;8.00;99.90
63537;DHT22;49686;51.880;5.632;2023-11-21T07:51:48;8.00;99.90
63537;DHT22;49686;51.880;5.632;2023-11-21T07:54:16;8.00;99.90
63537;DHT22;49686;51.880;5.632;2023-11-21T07:56:43;8.00;99.90
63537;DHT22;49686;51.880;5.632;2023-11-21T07:59:10;8.00;99.90
63537;DHT22;49686;51.880;5.632;2023-11-21T08:01:39;8.10;99.90
63537;DHT22;49686;51.880;5.632;2023-11-21T08:04:06;8.10;99.90
63537;DHT22;49686;51.880;5.632;2023-11-21T08:06:35;8.20;99.90
63537;DHT22;49686;51.880;5.632;2023-11-21T08:09:02;8.10;99.90
63537;DHT22;49686;51.880;5.632;2023-11-21T08:11:29;8.20;99.90
63537;DHT22;49686;51.880;5.632;2023-11-21T08:13:55;8.20;99.90
63537;DHT22;49686;51.880;5.632;2023-11-21T08:16:22;8.30;99.90
63537;DHT22;49686;51.880;5.632;2023-11-21T08:18:49;8.30;99.90
63537;DHT22;49686;51.880;5.632;2023-11-21T08:21:16;8.40;99.90
63537;DHT22;49686;51.880;5.632;2023-11-21T08:23:44;8.40;99.90
63537;DHT22;49686;51.880;5.632;2023-11-21T08:26:11;8.40;99.90
63537;DHT22;49686;51.880;5.632;2023-11-21T08:28:38;8.50;99.90
63537;DHT22;49686;51.880;5.632;2023-11-21T08:31:05;8.50;99.90
63537;DHT22;49686;51.880;5.632;2023-11-21T08:33:32;8.50;99.90
63537;DHT22;49686;51.880;5.632;2023-11-21T08:35:58;8.50;99.90
63537;DHT22;49686;51.880;5.632;2023-11-21T08:38:25;8.50;99.90
63537;DHT22;49686;51.880;5.632;2023-11-21T08:40:53;8.50;99.90
63537;DHT22;49686;51.880;5.632;2023-11-21T08:43:20;8.50;99.90
63537;DHT22;49686;51.880;5.632;2023-11-21T08:45:47;8.60;99.90
63537;DHT22;49686;51.880;5.632;2023-11-21T08:48:14;8.70;99.90
63537;DHT22;49686;51.880;5.632;2023-11-21T08:50:41;8.70;99.90
63537;DHT22;49686;51.880;5.632;2023-11-21T08:53:08;8.70;99.90
63537;DHT22;49686;51.880;5.632;2023-11-21T08:55:35;8.80;99.90
63537;DHT22;49686;51.880;5.632;2023-11-21T08:58:03;8.90;99.90
63537;DHT22;49686;51.880;5.632;2023-11-21T09:00:32;9.00;99.90
63537;DHT22;49686;51.880;5.632;2023-11-21T09:03:00;9.00;99.90
63537;DHT22;49686;51.880;5.632;2023-11-21T09:05:27;9.10;99.90
63537;DHT22;49686;51.880;5.632;2023-11-21T09:07:54;9.00;99.90
63537;DHT22;49686;51.880;5.632;2023-11-21T09:10:21;9.00;99.90
63537;DHT22;49686;51.880;5.632;2023-11-21T09:12:49;9.00;99.90
63537;DHT22;49686;51.880;5.632;2023-11-21T09:15:17;9.00;99.90
63537;DHT22;49686;51.880;5.632;2023-11-21T09:17:44;9.00;99.90
63537;DHT22;49686;51.880;5.632;2023-11-21T09:20:11;8.90;99.90
63537;DHT22;49686;51.880;5.632;2023-11-21T09:22:38;8.90;99.90
63537;DHT22;49686;51.880;5.632;2023-11-21T09:25:05;9.00;99.90
63537;DHT22;49686;51.880;5.632;2023-11-21T09:27:32;9.00;99.90
63537;DHT22;49686;51.880;5.632;2023-11-21T09:29:59;9.10;99.90
63537;DHT22;49686;51.880;5.632;2023-11-21T09:32:27;9.20;99.90
63537;DHT22;49686;51.880;5.632;2023-11-21T09:34:54;9.30;99.90
63537;DHT22;49686;51.880;5.632;2023-11-21T09:37:21;9.40;99.90
63537;DHT22;49686;51.880;5.632;2023-11-21T09:39:48;9.50;99.90
63537;DHT22;49686;51.880;5.632;2023-11-21T09:42:19;9.60;99.90
63537;DHT22;49686;51.880;5.632;2023-11-21T09:44:54;9.70;99.90
63537;DHT22;49686;51.880;5.632;2023-11-21T09:47:27;9.80;99.90
63537;DHT22;49686;51.880;5.632;2023-11-21T09:49:54;9.80;99.90
63537;DHT22;49686;51.880;5.632;2023-11-21T09:52:26;9.90;99.90
63537;DHT22;49686;51.880;5.632;2023-11-21T09:54:54;9.80;99.90
63537;DHT22;49686;51.880;5.632;2023-11-21T09:57:21;9.80;99.90
63537;DHT22;49686;51.880;5.632;2023-11-21T09:59:51;9.70;99.90
63537;DHT22;49686;51.880;5.632;2023-11-21T10:02:19;9.70;99.90
63537;DHT22;49686;51.880;5.632;2023-11-21T10:04:48;9.80;99.90
63537;DHT22;49686;51.880;5.632;2023-11-21T10:07:17;9.70;99.90
63537;DHT22;49686;51.880;5.632;2023-11-21T10:09:46;9.70;99.90
63537;DHT22;49686;51.880;5.632;2023-11-21T10:12:15;9.80;99.90
63537;DHT22;49686;51.880;5.632;2023-11-21T10:14:42;9.80;99.90
63537;DHT22;49686;51.880;5.632;2023-11-21T10:17:12;9.90;99.90
63537;DHT22;49686;51.880;5.632;2023-11-21T10:19:39;10.20;99.90
63537;DHT22;49686;51.880;5.632;2023-11-21T10:22:08;10.30;99.90
63537;DHT22;49686;51.880;5.632;2023-11-21T10:24:35;10.50;99.90
63537;DHT22;49686;51.880;5.632;2023-11-21T10:27:14;10.40;99.90
63537;DHT22;49686;51.880;5.632;2023-11-21T10:29:41;10.30;99.90
63537;DHT22;49686;51.880;5.632;2023-11-21T10:32:08;10.40;99.90
63537;DHT22;49686;51.880;5.632;2023-11-21T10:34:35;10.30;99.90
63537;DHT22;49686;51.880;5.632;2023-11-21T10:37:11;10.20;99.90
63537;DHT22;49686;51.880;5.632;2023-11-21T10:39:39;10.10;99.90
63537;DHT22;49686;51.880;5.632;2023-11-21T10:42:08;10.10;99.90
63537;DHT22;49686;51.880;5.632;2023-11-21T10:44:35;10.20;99.90
63537;DHT22;49686;51.880;5.632;2023-11-21T10:47:02;10.20;99.90
63537;DHT22;49686;51.880;5.632;2023-11-21T10:49:29;10.20;99.90
63537;DHT22;49686;51.880;5.632;2023-11-21T10:51:56;10.10;99.90
63537;DHT22;49686;51.880;5.632;2023-11-21T10:54:26;10.20;99.90
63537;DHT22;49686;51.880;5.632;2023-11-21T10:56:56;10.20;99.90
63537;DHT22;49686;51.880;5.632;2023-11-21T10:59:24;10.10;99.90
63537;DHT22;49686;51.880;5.632;2023-11-21T11:01:51;10.20;99.90
63537;DHT22;49686;51.880;5.632;2023-11-21T11:04:19;10.20;99.90
63537;DHT22;49686;51.880;5.632;2023-11-21T11:06:48;10.30;99.90
63537;DHT22;49686;51.880;5.632;2023-11-21T11:09:17;10.30;99.90
63537;DHT22;49686;51.880;5.632;2023-11-21T11:11:46;10.40;99.90
63537;DHT22;49686;51.880;5.632;2023-11-21T11:14:13;10.40;99.90
63537;DHT22;49686;51.880;5.632;2023-11-21T11:16:41;10.30;99.90
63537;DHT22;49686;51.880;5.632;2023-11-21T11:19:08;10.30;99.90
63537;DHT22;49686;51.880;5.632;2023-11-21T11:21:45;10.30;99.90
63537;DHT22;49686;51.880;5.632;2023-11-21T11:27:20;10.20;99.90
63537;DHT22;49686;51.880;5.632;2023-11-21T11:29:56;10.10;99.90
63537;DHT22;49686;51.880;5.632;2023-11-21T11:32:33;10.00;99.90
63537;DHT22;49686;51.880;5.632;2023-11-21T11:35:07;10.00;99.90
63537;DHT22;49686;51.880;5.632;2023-11-21T11:37:35;9.90;99.90
63537;DHT22;49686;51.880;5.632;2023-11-21T11:40:06;9.90;99.90
63537;DHT22;49686;51.880;5.632;2023-11-21T11:42:34;9.90;99.90
63537;DHT22;49686;51.880;5.632;2023-11-21T11:45:01;10.00;99.90
63537;DHT22;49686;51.880;5.632;2023-11-21T11:47:30;10.00;99.90
63537;DHT22;49686;51.880;5.632;2023-11-21T11:50:00;10.00;99.90
63537;DHT22;49686;51.880;5.632;2023-11-21T11:52:38;10.10;99.90
63537;DHT22;49686;51.880;5.632;2023-11-21T11:55:07;10.00;99.90
63537;DHT22;49686;51.880;5.632;2023-11-21T11:57:36;10.10;99.90
63537;DHT22;49686;51.880;5.632;2023-11-21T12:00:15;10.10;99.90
63537;DHT22;49686;51.880;5.632;2023-11-21T12:02:44;10.00;99.90
63537;DHT22;49686;51.880;5.632;2023-11-21T12:05:13;10.10;99.90
63537;DHT22;49686;51.880;5.632;2023-11-21T12:07:49;10.10;99.90
63537;DHT22;49686;51.880;5.632;2023-11-21T12:10:18;10.10;99.90
63537;DHT22;49686;51.880;5.632;2023-11-21T12:12:47;10.10;99.90
63537;DHT22;49686;51.880;5.632;2023-11-21T12:15:15;10.20;99.90
63537;DHT22;49686;51.880;5.632;2023-11-21T12:17:43;10.20;99.90
63537;DHT22;49686;51.880;5.632;2023-11-21T12:20:11;10.10;99.90
63537;DHT22;49686;51.880;5.632;2023-11-21T12:22:38;10.10;99.90
63537;DHT22;49686;51.880;5.632;2023-11-21T12:25:06;10.10;99.90
63537;DHT22;49686;51.880;5.632;2023-11-21T12:27:33;10.10;99.90
63537;DHT22;49686;51.880;5.632;2023-11-21T12:30:01;10.10;99.90
63537;DHT22;49686;51.880;5.632;2023-11-21T12:32:30;10.10;99.90
63537;DHT22;49686;51.880;5.632;2023-11-21T12:34:59;10.10;99.90
63537;DHT22;49686;51.880;5.632;2023-11-21T12:37:26;10.10;99.90
63537;DHT22;49686;51.880;5.632;2023-11-21T12:39:53;10.10;99.90
63537;DHT22;49686;51.880;5.632;2023-11-21T12:42:19;10.10;99.90
63537;DHT22;49686;51.880;5.632;2023-11-21T12:44:46;10.10;99.90
63537;DHT22;49686;51.880;5.632;2023-11-21T12:47:18;10.20;99.90
63537;DHT22;49686;51.880;5.632;2023-11-21T12:49:45;10.20;99.90
63537;DHT22;49686;51.880;5.632;2023-11-21T12:52:12;10.30;99.90
63537;DHT22;49686;51.880;5.632;2023-11-21T12:54:39;10.30;99.90
63537;DHT22;49686;51.880;5.632;2023-11-21T12:57:06;10.20;99.90
63537;DHT22;49686;51.880;5.632;2023-11-21T12:59:33;10.20;99.90
63537;DHT22;49686;51.880;5.632;2023-11-21T13:02:00;10.20;99.90
63537;DHT22;49686;51.880;5.632;2023-11-21T13:04:31;10.30;99.90
63537;DHT22;49686;51.880;5.632;2023-11-21T13:07:03;10.30;99.90
63537;DHT22;49686;51.880;5.632;2023-11-21T13:09:30;10.40;99.90
63537;DHT22;49686;51.880;5.632;2023-11-21T13:12:00;10.40;99.90
63537;DHT22;49686;51.880;5.632;2023-11-21T13:14:29;10.30;99.90
63537;DHT22;49686;51.880;5.632;2023-11-21T13:16:56;10.30;99.90
63537;DHT22;49686;51.880;5.632;2023-11-21T13:19:23;10.30;99.90
63537;DHT22;49686;51.880;5.632;2023-11-21T13:21:51;10.20;99.90
63537;DHT22;49686;51.880;5.632;2023-11-21T13:24:18;10.20;99.90
63537;DHT22;49686;51.880;5.632;2023-11-21T13:26:46;10.20;99.90
63537;DHT22;49686;51.880;5.632;2023-11-21T13:29:13;10.20;99.90
63537;DHT22;49686;51.880;5.632;2023-11-21T13:31:40;10.10;99.90
63537;DHT22;49686;51.880;5.632;2023-11-21T13:34:07;10.10;99.90
63537;DHT22;49686;51.880;5.632;2023-11-21T13:36:34;10.00;99.90
63537;DHT22;49686;51.880;5.632;2023-11-21T13:39:02;10.00;99.90
63537;DHT22;49686;51.880;5.632;2023-11-21T13:41:29;10.00;99.90
63537;DHT22;49686;51.880;5.632;2023-11-21T13:43:56;9.90;99.90
63537;DHT22;49686;51.880;5.632;2023-11-21T13:46:23;9.90;99.90
63537;DHT22;49686;51.880;5.632;2023-11-21T13:48:50;9.90;99.90
63537;DHT22;49686;51.880;5.632;2023-11-21T13:51:17;10.00;99.90
63537;DHT22;49686;51.880;5.632;2023-11-21T13:53:45;10.00;99.90
63537;DHT22;49686;51.880;5.632;2023-11-21T13:56:13;9.90;99.90
63537;DHT22;49686;51.880;5.632;2023-11-21T13:58:40;9.90;99.90
63537;DHT22;49686;51.880;5.632;2023-11-21T14:01:07;9.90;99.90
63537;DHT22;49686;51.880;5.632;2023-11-21T14:03:35;10.00;99.90
63537;DHT22;49686;51.880;5.632;2023-11-21T14:06:05;10.00;99.90
63537;DHT22;49686;51.880;5.632;2023-11-21T14:08:31;10.00;99.90
63537;DHT22;49686;51.880;5.632;2023-11-21T14:10:58;10.00;99.90
63537;DHT22;49686;51.880;5.632;2023-11-21T14:13:26;10.00;99.90
63537;DHT22;49686;51.880;5.632;2023-11-21T14:15:53;10.00;99.90
63537;DHT22;49686;51.880;5.632;2023-11-21T14:18:20;10.00;99.90
63537;DHT22;49686;51.880;5.632;2023-11-21T14:20:47;10.00;99.90
63537;DHT22;49686;51.880;5.632;2023-11-21T14:23:14;10.00;99.90
63537;DHT22;49686;51.880;5.632;2023-11-21T14:25:41;10.00;99.90
63537;DHT22;49686;51.880;5.632;2023-11-21T14:28:10;10.00;99.90
63537;DHT22;49686;51.880;5.632;2023-11-21T14:30:38;10.00;99.90
63537;DHT22;49686;51.880;5.632;2023-11-21T14:33:05;10.00;99.90
63537;DHT22;49686;51.880;5.632;2023-11-21T14:35:32;10.00;99.90
63537;DHT22;49686;51.880;5.632;2023-11-21T14:37:59;10.00;99.90
63537;DHT22;49686;51.880;5.632;2023-11-21T14:40:26;9.90;99.90
63537;DHT22;49686;51.880;5.632;2023-11-21T14:42:53;9.90;99.90
63537;DHT22;49686;51.880;5.632;2023-11-21T14:45:20;9.80;99.90
63537;DHT22;49686;51.880;5.632;2023-11-21T14:47:48;9.70;99.90
63537;DHT22;49686;51.880;5.632;2023-11-21T14:50:15;9.60;99.90
63537;DHT22;49686;51.880;5.632;2023-11-21T14:52:44;9.60;99.90
63537;DHT22;49686;51.880;5.632;2023-11-21T14:55:11;9.50;99.90
63537;DHT22;49686;51.880;5.632;2023-11-21T14:57:37;9.40;99.90
63537;DHT22;49686;51.880;5.632;2023-11-21T15:00:06;9.40;99.90
63537;DHT22;49686;51.880;5.632;2023-11-21T15:02:33;9.30;99.90
63537;DHT22;49686;51.880;5.632;2023-11-21T15:05:01;9.30;99.90
63537;DHT22;49686;51.880;5.632;2023-11-21T15:07:28;9.30;99.90
63537;DHT22;49686;51.880;5.632;2023-11-21T15:09:55;9.30;99.90
63537;DHT22;49686;51.880;5.632;2023-11-21T15:12:22;9.30;99.90
63537;DHT22;49686;51.880;5.632;2023-11-21T15:14:50;9.30;99.90
63537;DHT22;49686;51.880;5.632;2023-11-21T15:17:17;9.30;99.90
63537;DHT22;49686;51.880;5.632;2023-11-21T15:19:44;9.30;99.90
63537;DHT22;49686;51.880;5.632;2023-11-21T15:22:13;9.30;99.90
63537;DHT22;49686;51.880;5.632;2023-11-21T15:24:39;9.20;99.90
63537;DHT22;49686;51.880;5.632;2023-11-21T15:27:07;9.20;99.90
63537;DHT22;49686;51.880;5.632;2023-11-21T15:29:33;9.20;99.90
63537;DHT22;49686;51.880;5.632;2023-11-21T15:32:00;9.10;99.90
63537;DHT22;49686;51.880;5.632;2023-11-21T15:34:27;9.10;99.90
63537;DHT22;49686;51.880;5.632;2023-11-21T15:36:54;9.00;99.90
63537;DHT22;49686;51.880;5.632;2023-11-21T15:39:22;9.00;99.90
63537;DHT22;49686;51.880;5.632;2023-11-21T15:41:49;8.90;99.90
63537;DHT22;49686;51.880;5.632;2023-11-21T15:44:16;8.90;99.90
63537;DHT22;49686;51.880;5.632;2023-11-21T15:46:43;8.80;99.90
63537;DHT22;49686;51.880;5.632;2023-11-21T15:49:10;8.70;99.90